createdAt,value
2022-11-29T00:01:44.207Z,9.10
2022-11-29T00:04:19.516Z,9.00
2022-11-29T00:07:12.253Z,9.00
2022-11-29T00:09:44.672Z,9.00
2022-11-29T00:12:15.517Z,9.00
2022-11-29T00:14:43.977Z,9.00
2022-11-29T00:17:12.682Z,8.90
2022-11-29T00:19:40.998Z,8.90
2022-11-29T00:22:10.285Z,8.90
2022-11-29T00:24:42.722Z,8.90
2022-11-29T00:27:14.645Z,8.90
2022-11-29T00:29:42.739Z,8.90
2022-11-29T00:32:11.132Z,8.80
2022-11-29T00:34:39.369Z,8.80
2022-11-29T00:37:09.993Z,8.80
2022-11-29T00:39:38.096Z,8.80
2022-11-29T00:42:06.155Z,8.70
2022-11-29T00:44:36.569Z,8.80
2022-11-29T00:47:06.226Z,8.70
2022-11-29T00:49:34.859Z,8.70
2022-11-29T00:52:03.541Z,8.70
2022-11-29T00:54:32.963Z,8.70
2022-11-29T00:57:08.518Z,8.70
2022-11-29T00:59:38.268Z,8.60
2022-11-29T01:02:06.314Z,8.70
2022-11-29T01:04:54.747Z,8.60
2022-11-29T01:07:24.876Z,8.60
2022-11-29T01:09:53.189Z,8.60
2022-11-29T01:12:22.412Z,8.60
2022-11-29T01:14:53.066Z,8.60
2022-11-29T01:17:21.455Z,8.50
2022-11-29T01:19:51.017Z,8.50
2022-11-29T01:22:19.755Z,8.50
2022-11-29T01:24:50.337Z,8.50
2022-11-29T01:27:19.721Z,8.50
2022-11-29T01:29:47.883Z,8.50
2022-11-29T01:32:17.334Z,8.40
2022-11-29T01:34:48.067Z,8.40
2022-11-29T01:37:16.041Z,8.50
2022-11-29T01:39:46.766Z,8.40
2022-11-29T01:42:20.639Z,8.40
2022-11-29T01:45:10.611Z,8.40
2022-11-29T01:47:45.367Z,8.40
2022-11-29T01:50:16.197Z,8.50
2022-11-29T01:53:09.981Z,8.40
2022-11-29T01:55:43.239Z,8.40
2022-11-29T01:58:11.881Z,8.40
2022-11-29T02:00:40.534Z,8.40
2022-11-29T02:03:17.665Z,8.40
2022-11-29T02:05:50.525Z,8.40
2022-11-29T02:08:24.362Z,8.40
2022-11-29T02:11:08.610Z,8.40
2022-11-29T02:13:44.088Z,8.40
2022-11-29T02:16:19.739Z,8.40
2022-11-29T02:18:58.733Z,8.40
2022-11-29T02:21:45.216Z,8.30
2022-11-29T02:24:59.387Z,8.40
2022-11-29T02:27:53.674Z,8.30
2022-11-29T02:30:31.432Z,8.40
2022-11-29T02:33:38.591Z,8.30
2022-11-29T02:36:43.100Z,8.40
2022-11-29T02:39:44.303Z,8.30
2022-11-29T02:42:56.214Z,8.30
2022-11-29T02:45:59.837Z,8.30
2022-11-29T02:48:48.188Z,8.40
2022-11-29T02:51:37.502Z,8.30
2022-11-29T02:54:14.402Z,8.30
2022-11-29T02:56:48.703Z,8.30
2022-11-29T02:59:31.959Z,8.30
2022-11-29T03:02:11.855Z,8.30
2022-11-29T03:05:11.337Z,8.20
2022-11-29T03:07:50.181Z,8.30
2022-11-29T03:10:30.533Z,8.30
2022-11-29T03:13:01.154Z,8.20
2022-11-29T03:15:33.057Z,8.20
2022-11-29T03:18:28.980Z,8.20
2022-11-29T03:21:21.846Z,8.20
2022-11-29T03:23:54.872Z,8.20
2022-11-29T03:26:28.524Z,8.20
2022-11-29T03:29:01.910Z,8.10
2022-11-29T03:31:55.256Z,8.20
2022-11-29T03:34:57.721Z,8.20
2022-11-29T03:37:34.140Z,8.10
2022-11-29T03:40:10.927Z,8.10
2022-11-29T03:42:48.447Z,8.10
2022-11-29T03:45:28.634Z,8.10
2022-11-29T03:48:24.328Z,8.10
2022-11-29T03:51:16.202Z,8.10
2022-11-29T03:53:52.387Z,8.00
2022-11-29T03:56:31.017Z,8.10
2022-11-29T03:59:09.838Z,8.10
2022-11-29T04:02:32.208Z,8.00
2022-11-29T04:06:04.710Z,8.00
2022-11-29T04:08:58.898Z,8.00
2022-11-29T04:12:09.143Z,8.00
2022-11-29T04:15:19.836Z,8.00
2022-11-29T04:18:42.636Z,8.00
2022-11-29T04:21:52.821Z,8.00
2022-11-29T04:28:14.655Z,7.90
2022-11-29T04:38:09.863Z,7.90
2022-11-29T04:41:09.993Z,7.90
2022-11-29T04:44:15.715Z,8.00
2022-11-29T04:50:49.748Z,8.00
2022-11-29T04:53:49.156Z,8.00
2022-11-29T04:56:46.765Z,8.00
2022-11-29T04:59:25.394Z,8.00
2022-11-29T05:02:05.240Z,8.00
2022-11-29T05:04:41.703Z,8.10
2022-11-29T05:07:18.364Z,8.10
2022-11-29T05:10:01.077Z,8.10
2022-11-29T05:12:35.537Z,8.10
2022-11-29T05:15:55.842Z,8.10
2022-11-29T05:19:07.655Z,8.10
2022-11-29T05:21:51.500Z,8.10
2022-11-29T05:24:33.739Z,8.10
2022-11-29T05:27:11.955Z,8.10
2022-11-29T05:29:51.134Z,8.10
2022-11-29T05:32:52.803Z,8.10
2022-11-29T05:35:54.409Z,8.20
2022-11-29T05:38:48.074Z,8.10
2022-11-29T05:41:58.826Z,8.10
2022-11-29T05:44:37.928Z,8.00
2022-11-29T05:47:10.262Z,8.00
2022-11-29T05:49:46.050Z,8.00
2022-11-29T05:52:37.706Z,7.90
2022-11-29T05:55:24.010Z,7.90
2022-11-29T05:57:57.554Z,7.90
2022-11-29T06:00:29.344Z,7.90
2022-11-29T06:03:03.840Z,7.90
2022-11-29T06:05:40.138Z,7.80
2022-11-29T06:08:15.115Z,7.90
2022-11-29T06:10:56.688Z,7.90
2022-11-29T06:13:37.899Z,7.80
2022-11-29T06:16:20.205Z,7.80
2022-11-29T06:19:08.193Z,7.80
2022-11-29T06:21:41.478Z,7.80
2022-11-29T06:24:26.229Z,7.80
2022-11-29T06:27:24.078Z,7.80
2022-11-29T06:30:00.959Z,7.80
2022-11-29T06:32:40.301Z,7.80
2022-11-29T06:35:19.025Z,7.70
2022-11-29T06:37:51.486Z,7.70
2022-11-29T06:40:19.525Z,7.70
2022-11-29T06:42:48.863Z,7.70
2022-11-29T06:45:18.276Z,7.70
2022-11-29T06:47:50.504Z,7.70
2022-11-29T06:50:35.433Z,7.60
2022-11-29T06:53:11.956Z,7.60
2022-11-29T06:55:46.528Z,7.70
2022-11-29T06:58:36.076Z,7.60
2022-11-29T07:01:14.344Z,7.60
2022-11-29T07:04:12.946Z,7.60
2022-11-29T07:06:41.434Z,7.60
2022-11-29T07:09:15.780Z,7.60
2022-11-29T07:11:44.774Z,7.60
2022-11-29T07:14:14.033Z,7.60
2022-11-29T07:16:57.018Z,7.60
2022-11-29T07:19:34.246Z,7.60
2022-11-29T07:22:10.262Z,7.50
2022-11-29T07:24:55.019Z,7.50
2022-11-29T07:27:31.876Z,7.50
2022-11-29T07:30:11.006Z,7.50
2022-11-29T07:32:52.046Z,7.50
2022-11-29T07:35:30.389Z,7.50
2022-11-29T07:38:06.122Z,7.50
2022-11-29T07:40:45.456Z,7.50
2022-11-29T07:43:25.677Z,7.50
2022-11-29T07:45:54.151Z,7.50
2022-11-29T07:48:22.188Z,7.60
2022-11-29T07:50:50.337Z,7.50
2022-11-29T07:53:19.722Z,7.60
2022-11-29T07:55:49.507Z,7.50
2022-11-29T07:58:19.006Z,7.50
2022-11-29T08:00:47.425Z,7.50
2022-11-29T08:03:15.472Z,7.50
2022-11-29T08:05:47.094Z,7.50
2022-11-29T08:08:16.660Z,7.50
2022-11-29T08:10:45.378Z,7.60
2022-11-29T08:13:15.213Z,7.60
2022-11-29T08:15:45.891Z,7.60
2022-11-29T08:18:14.275Z,7.60
2022-11-29T08:20:42.656Z,7.60
2022-11-29T08:23:13.395Z,7.60
2022-11-29T08:25:41.364Z,7.60
2022-11-29T08:28:09.585Z,7.70
2022-11-29T08:30:39.671Z,7.70
2022-11-29T08:33:07.992Z,7.70
2022-11-29T08:35:36.508Z,7.60
2022-11-29T08:38:05.151Z,7.70
2022-11-29T08:40:33.741Z,7.70
2022-11-29T08:43:02.101Z,7.70
2022-11-29T08:45:30.431Z,7.70
2022-11-29T08:48:00.838Z,7.70
2022-11-29T08:50:28.801Z,7.70
2022-11-29T08:53:16.757Z,7.70
2022-11-29T08:55:46.545Z,7.80
2022-11-29T08:58:17.278Z,7.80
2022-11-29T09:00:47.023Z,7.70
2022-11-29T09:03:34.093Z,7.80
2022-11-29T09:06:12.003Z,7.80
2022-11-29T09:08:40.627Z,7.80
2022-11-29T09:11:13.236Z,7.80
2022-11-29T09:13:42.976Z,7.80
2022-11-29T09:16:13.373Z,7.80
2022-11-29T09:18:48.536Z,7.90
2022-11-29T09:21:19.577Z,7.90
2022-11-29T09:23:47.782Z,7.90
2022-11-29T09:26:18.961Z,7.90
2022-11-29T09:28:47.367Z,7.90
2022-11-29T09:31:17.180Z,7.90
2022-11-29T09:33:46.648Z,7.90
2022-11-29T09:36:14.891Z,7.90
2022-11-29T09:38:43.625Z,7.90
2022-11-29T09:41:33.340Z,8.00
2022-11-29T09:44:09.611Z,8.10
2022-11-29T09:46:46.429Z,8.00
2022-11-29T09:49:53.885Z,8.10
2022-11-29T09:52:35.291Z,8.10
2022-11-29T09:55:22.213Z,8.10
2022-11-29T09:58:12.605Z,8.20
2022-11-29T10:00:49.579Z,8.20
2022-11-29T10:03:25.490Z,8.20
2022-11-29T10:06:01.323Z,8.30
2022-11-29T10:08:35.049Z,8.40
2022-11-29T10:11:15.352Z,8.50
2022-11-29T10:13:48.889Z,8.50
2022-11-29T10:16:23.587Z,8.60
2022-11-29T10:18:57.097Z,8.60
2022-11-29T10:21:31.471Z,8.70
2022-11-29T10:24:04.922Z,8.80
2022-11-29T10:26:35.561Z,8.80
2022-11-29T10:29:04.102Z,8.90
2022-11-29T10:31:37.747Z,9.00
2022-11-29T10:34:14.218Z,9.00
2022-11-29T10:36:47.576Z,9.10
2022-11-29T10:39:24.567Z,9.20
2022-11-29T10:41:58.087Z,9.40
2022-11-29T10:44:27.250Z,9.40
2022-11-29T10:46:56.530Z,9.40
2022-11-29T10:49:30.322Z,9.40
2022-11-29T10:52:00.447Z,9.50
2022-11-29T10:54:35.863Z,9.50
2022-11-29T10:57:09.607Z,9.50
2022-11-29T10:59:37.645Z,9.50
2022-11-29T11:02:06.640Z,9.60
2022-11-29T11:04:37.988Z,9.50
2022-11-29T11:07:08.668Z,9.60
2022-11-29T11:09:39.581Z,9.60
2022-11-29T11:12:17.966Z,9.50
2022-11-29T11:14:47.113Z,9.50
2022-11-29T11:17:22.759Z,9.50
2022-11-29T11:19:58.209Z,9.40
2022-11-29T11:22:29.734Z,9.50
2022-11-29T11:25:00.631Z,9.50
2022-11-29T11:27:33.550Z,9.60
2022-11-29T11:30:03.215Z,9.60
2022-11-29T11:32:31.495Z,9.60
2022-11-29T11:35:02.755Z,9.60
2022-11-29T11:37:36.118Z,9.70
2022-11-29T11:40:20.748Z,9.70
2022-11-29T11:42:49.336Z,9.70
2022-11-29T11:45:28.868Z,9.70
2022-11-29T11:48:00.033Z,9.70
2022-11-29T11:50:31.912Z,9.80
2022-11-29T11:53:06.302Z,9.80
2022-11-29T11:55:38.623Z,9.80
2022-11-29T11:58:18.987Z,9.80
2022-11-29T12:01:06.231Z,9.80
2022-11-29T12:03:40.303Z,9.80
2022-11-29T12:06:28.359Z,9.80
2022-11-29T12:09:03.583Z,9.80
2022-11-29T12:11:39.958Z,9.80
2022-11-29T12:14:09.292Z,9.90
2022-11-29T12:16:40.467Z,9.90
2022-11-29T12:19:15.765Z,9.90
2022-11-29T12:21:48.839Z,9.90
2022-11-29T12:24:26.372Z,9.90
2022-11-29T12:26:58.507Z,9.90
2022-11-29T12:29:33.575Z,10.00
2022-11-29T12:32:15.902Z,10.00
2022-11-29T12:35:02.227Z,10.00
2022-11-29T12:37:37.124Z,10.00
2022-11-29T12:40:12.773Z,9.90
2022-11-29T12:42:51.687Z,10.00
2022-11-29T12:45:30.983Z,10.00
2022-11-29T12:48:08.995Z,9.90
2022-11-29T12:50:46.442Z,9.90
2022-11-29T12:53:39.223Z,9.90
2022-11-29T12:56:16.659Z,9.90
2022-11-29T12:58:57.402Z,9.90
2022-11-29T13:01:32.890Z,9.80
2022-11-29T13:04:13.770Z,9.90
2022-11-29T13:06:48.727Z,9.80
2022-11-29T13:10:02.605Z,9.90
2022-11-29T13:12:38.564Z,9.90
2022-11-29T13:15:13.083Z,9.80
2022-11-29T13:17:47.646Z,9.80
2022-11-29T13:20:38.113Z,9.90
2022-11-29T13:23:15.697Z,9.90
2022-11-29T13:25:47.926Z,9.90
2022-11-29T13:28:24.278Z,9.90
2022-11-29T13:30:54.024Z,9.90
2022-11-29T13:33:28.381Z,9.90
2022-11-29T13:36:07.166Z,10.00
2022-11-29T13:38:41.869Z,10.00
2022-11-29T13:41:21.074Z,10.00
2022-11-29T13:43:59.093Z,10.10
2022-11-29T13:46:34.222Z,10.10
2022-11-29T13:49:02.501Z,10.10
2022-11-29T13:51:34.373Z,10.10
2022-11-29T13:54:04.447Z,10.20
2022-11-29T13:56:43.340Z,10.20
2022-11-29T13:59:20.302Z,10.20
2022-11-29T14:01:50.520Z,10.20
2022-11-29T14:04:37.653Z,10.20
2022-11-29T14:07:10.338Z,10.20
2022-11-29T14:09:58.433Z,10.30
2022-11-29T14:12:38.336Z,10.30
2022-11-29T14:15:28.762Z,10.30
2022-11-29T14:17:58.806Z,10.30
2022-11-29T14:20:46.579Z,10.40
2022-11-29T14:23:32.409Z,10.40
2022-11-29T14:26:31.985Z,10.40
2022-11-29T14:29:00.718Z,10.50
2022-11-29T14:31:54.458Z,10.50
2022-11-29T14:34:35.989Z,10.50
2022-11-29T14:37:15.605Z,10.60
2022-11-29T14:39:46.846Z,10.60
2022-11-29T14:42:18.985Z,10.60
2022-11-29T14:44:51.199Z,10.60
2022-11-29T14:47:29.772Z,10.60
2022-11-29T14:49:59.503Z,10.60
2022-11-29T14:52:30.282Z,10.60
2022-11-29T14:55:06.790Z,10.60
2022-11-29T14:57:54.297Z,10.60
2022-11-29T15:00:24.513Z,10.50
2022-11-29T15:02:57.114Z,10.50
2022-11-29T15:05:32.265Z,10.50
2022-11-29T15:08:09.613Z,10.50
2022-11-29T15:10:41.152Z,10.50
2022-11-29T15:13:14.088Z,10.50
2022-11-29T15:16:15.127Z,10.40
2022-11-29T15:19:13.858Z,10.30
2022-11-29T15:21:51.606Z,10.30
2022-11-29T15:24:24.992Z,10.40
2022-11-29T15:26:57.373Z,10.40
2022-11-29T15:29:26.059Z,10.30
2022-11-29T15:31:55.994Z,10.30
2022-11-29T15:34:32.652Z,10.40
2022-11-29T15:37:01.415Z,10.40
2022-11-29T15:39:32.272Z,10.30
2022-11-29T15:42:05.358Z,10.30
2022-11-29T15:44:33.856Z,10.30
2022-11-29T15:47:22.115Z,10.30
2022-11-29T15:49:52.130Z,10.30
2022-11-29T15:52:29.091Z,10.40
2022-11-29T15:55:01.629Z,10.30
2022-11-29T15:57:34.790Z,10.30
2022-11-29T16:00:06.684Z,10.30
2022-11-29T16:02:37.053Z,10.30
2022-11-29T16:05:15.648Z,10.30
2022-11-29T16:07:45.268Z,10.30
2022-11-29T16:10:17.554Z,10.30
2022-11-29T16:12:54.245Z,10.30
2022-11-29T16:15:29.008Z,10.30
2022-11-29T16:17:57.396Z,10.30
2022-11-29T16:20:28.113Z,10.30
2022-11-29T16:23:11.533Z,10.30
2022-11-29T16:25:56.739Z,10.20
2022-11-29T16:28:28.548Z,10.20
2022-11-29T16:30:57.269Z,10.10
2022-11-29T16:33:26.127Z,10.10
2022-11-29T16:36:07.103Z,10.10
2022-11-29T16:38:35.924Z,10.00
2022-11-29T16:41:08.685Z,10.00
2022-11-29T16:43:54.091Z,10.00
2022-11-29T16:46:30.178Z,10.00
2022-11-29T16:49:00.815Z,10.00
2022-11-29T16:51:37.859Z,9.90
2022-11-29T16:54:24.521Z,9.90
2022-11-29T16:56:53.993Z,9.90
2022-11-29T17:02:17.101Z,9.80
2022-11-29T17:04:45.651Z,9.80
2022-11-29T17:07:22.897Z,9.80
2022-11-29T17:09:50.944Z,9.80
2022-11-29T17:12:20.209Z,9.80
2022-11-29T17:14:48.483Z,9.80
2022-11-29T17:17:18.900Z,9.80
2022-11-29T17:19:46.944Z,9.80
2022-11-29T17:22:16.263Z,9.80
2022-11-29T17:24:48.397Z,9.80
2022-11-29T17:27:16.715Z,9.90
2022-11-29T17:29:45.007Z,9.90
2022-11-29T17:32:13.165Z,10.00
2022-11-29T17:34:41.162Z,9.90
2022-11-29T17:37:09.335Z,9.90
2022-11-29T17:39:38.600Z,9.90
2022-11-29T17:42:06.596Z,9.90
2022-11-29T17:44:36.861Z,9.90
2022-11-29T17:47:05.206Z,10.00
2022-11-29T17:49:33.273Z,10.00
2022-11-29T17:52:01.389Z,9.90
2022-11-29T17:54:34.017Z,10.00
2022-11-29T17:57:04.546Z,10.00
2022-11-29T17:59:32.642Z,9.90
2022-11-29T18:02:02.070Z,10.00
2022-11-29T18:04:30.311Z,10.00
2022-11-29T18:06:58.794Z,10.00
2022-11-29T18:09:26.958Z,9.90
2022-11-29T18:11:54.917Z,9.90
2022-11-29T18:14:28.452Z,9.90
2022-11-29T18:16:56.683Z,9.90
2022-11-29T18:19:25.462Z,9.90
2022-11-29T18:21:53.434Z,9.90
2022-11-29T18:24:21.430Z,9.90
2022-11-29T18:26:49.580Z,9.80
2022-11-29T18:29:17.788Z,9.90
2022-11-29T18:31:48.008Z,9.90
2022-11-29T18:34:16.570Z,9.90
2022-11-29T18:36:46.042Z,9.90
2022-11-29T18:39:16.256Z,9.80
2022-11-29T18:41:46.230Z,9.80
2022-11-29T18:44:16.494Z,9.80
2022-11-29T18:46:47.165Z,9.80
2022-11-29T18:49:16.873Z,9.90
2022-11-29T18:51:46.165Z,9.80
2022-11-29T18:54:14.668Z,9.90
2022-11-29T18:56:43.700Z,9.90
2022-11-29T18:59:14.777Z,9.90
2022-11-29T19:01:45.111Z,9.90
2022-11-29T19:04:16.901Z,9.80
2022-11-29T19:06:45.156Z,9.90
2022-11-29T19:09:15.703Z,9.90
2022-11-29T19:11:43.829Z,9.90
2022-11-29T19:14:13.363Z,9.90
2022-11-29T19:16:46.884Z,9.90
2022-11-29T19:19:39.553Z,9.90
2022-11-29T19:22:08.191Z,9.90
2022-11-29T19:24:36.584Z,9.90
2022-11-29T19:27:06.995Z,9.90
2022-11-29T19:29:39.783Z,9.90
2022-11-29T19:32:09.656Z,10.00
2022-11-29T19:34:42.789Z,10.00
2022-11-29T19:37:12.769Z,10.00
2022-11-29T19:40:04.685Z,10.00
2022-11-29T19:42:54.231Z,10.00
2022-11-29T19:45:27.617Z,9.90
2022-11-29T19:48:00.109Z,10.00
2022-11-29T19:50:31.396Z,10.00
2022-11-29T19:53:01.561Z,9.90
2022-11-29T19:55:45.548Z,9.90
2022-11-29T19:58:14.261Z,9.90
2022-11-29T20:00:42.503Z,9.90
2022-11-29T20:03:11.325Z,10.00
2022-11-29T20:05:43.618Z,9.90
2022-11-29T20:08:17.103Z,10.00
2022-11-29T20:11:00.315Z,9.90
2022-11-29T20:13:28.711Z,9.90
2022-11-29T20:16:01.850Z,9.90
2022-11-29T20:18:35.484Z,9.90
2022-11-29T20:21:08.059Z,9.90
2022-11-29T20:23:39.929Z,9.90
2022-11-29T20:26:16.280Z,9.90
2022-11-29T20:28:46.809Z,10.00
2022-11-29T20:31:17.897Z,10.00
2022-11-29T20:34:08.924Z,10.00
2022-11-29T20:37:01.266Z,10.00
2022-11-29T20:39:41.799Z,9.90
2022-11-29T20:42:40.709Z,9.90
2022-11-29T20:45:10.580Z,9.90
2022-11-29T20:47:46.404Z,9.80
2022-11-29T20:50:23.161Z,9.80
2022-11-29T20:53:05.129Z,9.80
2022-11-29T20:55:42.503Z,9.80
2022-11-29T20:58:16.577Z,9.80
2022-11-29T21:00:48.614Z,9.70
2022-11-29T21:03:22.618Z,9.70
2022-11-29T21:05:51.862Z,9.70
2022-11-29T21:08:22.982Z,9.70
2022-11-29T21:10:51.970Z,9.60
2022-11-29T21:13:41.703Z,9.70
2022-11-29T21:16:12.170Z,9.60
2022-11-29T21:18:41.577Z,9.60
2022-11-29T21:21:23.941Z,9.60
2022-11-29T21:24:26.171Z,9.60
2022-11-29T21:26:55.766Z,9.60
2022-11-29T21:29:25.398Z,9.60
2022-11-29T21:31:55.393Z,9.60
2022-11-29T21:34:23.842Z,9.60
2022-11-29T21:36:56.972Z,9.60
2022-11-29T21:39:31.381Z,9.50
2022-11-29T21:41:59.873Z,9.50
2022-11-29T21:44:30.417Z,9.60
2022-11-29T21:46:59.965Z,9.50
2022-11-29T21:49:28.330Z,9.40
2022-11-29T21:52:22.305Z,9.30
2022-11-29T21:54:55.532Z,9.30
2022-11-29T21:57:26.939Z,9.40
2022-11-29T21:59:54.978Z,9.40
2022-11-29T22:02:23.165Z,9.30
2022-11-29T22:04:51.355Z,9.30
2022-11-29T22:07:19.330Z,9.30
2022-11-29T22:09:48.134Z,9.30
2022-11-29T22:12:34.859Z,9.30
2022-11-29T22:15:11.126Z,9.20
2022-11-29T22:17:39.332Z,9.20
2022-11-29T22:20:10.307Z,9.30
2022-11-29T22:22:38.962Z,9.20
2022-11-29T22:25:07.800Z,9.20
2022-11-29T22:27:38.529Z,9.20
2022-11-29T22:30:08.979Z,9.20
2022-11-29T22:32:37.000Z,9.20
2022-11-29T22:35:05.312Z,9.20
2022-11-29T22:37:35.993Z,9.20
2022-11-29T22:40:04.644Z,9.20
2022-11-29T22:42:33.221Z,9.10
2022-11-29T22:45:05.582Z,9.10
2022-11-29T22:47:34.198Z,9.10
2022-11-29T22:50:02.524Z,9.10
2022-11-29T22:52:31.679Z,9.10
2022-11-29T22:55:04.499Z,9.20
2022-11-29T22:57:33.130Z,9.10
2022-11-29T23:00:05.166Z,9.10
2022-11-29T23:02:33.578Z,9.20
2022-11-29T23:05:01.813Z,9.20
2022-11-29T23:07:29.773Z,9.20
2022-11-29T23:10:00.148Z,9.20
2022-11-29T23:12:30.734Z,9.20
2022-11-29T23:15:19.573Z,9.20
2022-11-29T23:17:52.896Z,9.20
2022-11-29T23:20:21.585Z,9.30
2022-11-29T23:22:49.680Z,9.20
2022-11-29T23:25:18.648Z,9.30
2022-11-29T23:27:47.364Z,9.30
2022-11-29T23:30:16.267Z,9.30
2022-11-29T23:32:45.212Z,9.30
2022-11-29T23:35:17.069Z,9.30
2022-11-29T23:37:47.735Z,9.30
2022-11-29T23:40:37.117Z,9.30
2022-11-29T23:43:05.997Z,9.30
2022-11-29T23:45:41.951Z,9.30
2022-11-29T23:48:10.463Z,9.30
2022-11-29T23:50:41.139Z,9.40
2022-11-29T23:53:09.638Z,9.40
2022-11-29T23:55:39.177Z,9.40
2022-11-29T23:58:12.959Z,9.30
